Terminal Aerodrome Forecast
Issued by NWS North Platte, NE

Home | Current Version | Previous Version | Text Only | Print | Product List | Glossary On
Versions: 1 2 3 4 5 6 7 8 9 10 11 12 13 14 15 16 17 18 19 20
000
FTUS43 KLBF 281700
TAFLBF
TAF
KLBF 281729Z 2818/2918 16008KT P6SM SKC
     FM290500 28012G19KT P6SM VCTS SCT120CB BKN200
     FM290900 33015G25KT P6SM SCT120
     FM291000 32011KT P6SM SCT100=

USA.gov is the U.S. government's official web portal to all federal, state and local government web resources and services.